Leisa Gail Strafuss — WDH4277 — position and weather

sailwx.info

Track history (hours):
 
Tides and Currents Weather Stations Pressure Air Temp Water Temp Dewpoint Dewpoint Depression Visibility Wind Speed Wind Dir Waves Ship Positions

Leisa Gail Strafuss

Owner: Amis, LLC, Harahan,, LA. More information available from US FCC via Universal Licensing System and Coast Guard Vessel Documentation Center.

Last reported at 2017-Sep-21 00:29 UTC. Time now 2017-Sep-24 03:18 UTC.
Position N 29°57' W 090°22'.

Length 23 m; draft 2.7 m.

Type: Towing. MMSI: 367616040.

Date/timePositionNaut miles runAvg speedWind from/ knotsBaromVisibWave heightAir tempDewpointWater temp
2017-Sep-21 00:29N 29°57' W 090°22'  
2017-Sep-12 07:36N 29°34' W 090°23'1 5.2
2017-Sep-12 07:25N 29°33' W 090°24'3 6.4
2017-Sep-12 06:56N 29°33' W 090°27'3 6.8
2017-Sep-12 06:30N 29°34' W 090°31'3 6.6
2017-Sep-12 06:00N 29°34' W 090°35'3 6.1
2017-Sep-12 05:30N 29°35' W 090°38'3 6.3
2017-Sep-12 05:00N 29°36' W 090°41'2 3.5
2017-Sep-12 04:30N 29°35' W 090°43'2 3.9
2017-Sep-12 04:00N 29°34' W 090°44'3 5.9
2017-Sep-12 03:30N 29°32' W 090°47'4 7.1
2017-Sep-12 03:00N 29°32' W 090°51'3 6.8
2017-Sep-12 02:30N 29°33' W 090°55'3 6.6
2017-Sep-12 01:59N 29°35' W 090°58'53 5.0
2017-Sep-11 15:25N 29°51' W 091°57'3 6.6
2017-Sep-11 14:59N 29°50' W 091°60'3 6.7
2017-Sep-11 14:30N 29°49' W 092°03'3 7.0
2017-Sep-11 14:00N 29°47' W 092°07'3 6.2
2017-Sep-11 13:29N 29°47' W 092°11'3 6.0
2017-Sep-11 13:00N 29°48' W 092°14'3 6.8
2017-Sep-11 12:29N 29°49' W 092°17'39 5.8
2017-Sep-11 05:50N 29°56' W 093°01'2 6.0
2017-Sep-11 05:28N 29°56' W 093°04'3 5.9
2017-Sep-11 05:00N 29°56' W 093°07'3 5.1
2017-Sep-11 04:28N 29°57' W 093°10'2 4.2
2017-Sep-11 04:00N 29°58' W 093°12'3 5.6
2017-Sep-11 03:29N 30°00' W 093°14'2 3.0
2017-Sep-11 02:55N 30°02' W 093°15'0 0.4
2017-Sep-11 02:30N 30°02' W 093°15'1 1.1
2017-Sep-11 01:57N 30°02' W 093°16'2 4.5
2017-Sep-11 01:30N 30°04' W 093°16'2 4.5
2017-Sep-11 01:00N 30°06' W 093°18'0 0.4
2017-Sep-11 00:30N 30°06' W 093°18'  
Track history (hours):
 
Tides and Currents Weather Stations Pressure Air Temp Water Temp Dewpoint Dewpoint Depression Visibility Wind Speed Wind Dir Waves Ship Positions

Leisa Gail Strafuss

Owner: Amis, LLC, Harahan,, LA. More information available from US FCC via Universal Licensing System and Coast Guard Vessel Documentation Center.

Last reported at 2017-Sep-21 00:29 UTC. Time now 2017-Sep-24 03:18 UTC.
Position N 29°57' W 090°22'.

Length 23 m; draft 2.7 m.

Type: Towing. MMSI: 367616040.

Date/timePositionNaut miles runAvg speedWind from/ knotsBaromVisibWave heightAir tempDewpointWater temp
2017-Sep-21 00:29N 29°57' W 090°22'  
2017-Sep-12 07:36N 29°34' W 090°23'1 5.2
2017-Sep-12 07:25N 29°33' W 090°24'3 6.4
2017-Sep-12 06:56N 29°33' W 090°27'3 6.8
2017-Sep-12 06:30N 29°34' W 090°31'3 6.6
2017-Sep-12 06:00N 29°34' W 090°35'3 6.1
2017-Sep-12 05:30N 29°35' W 090°38'3 6.3
2017-Sep-12 05:00N 29°36' W 090°41'2 3.5
2017-Sep-12 04:30N 29°35' W 090°43'2 3.9
2017-Sep-12 04:00N 29°34' W 090°44'3 5.9
2017-Sep-12 03:30N 29°32' W 090°47'4 7.1
2017-Sep-12 03:00N 29°32' W 090°51'3 6.8
2017-Sep-12 02:30N 29°33' W 090°55'3 6.6
2017-Sep-12 01:59N 29°35' W 090°58'53 5.0
2017-Sep-11 15:25N 29°51' W 091°57'3 6.6
2017-Sep-11 14:59N 29°50' W 091°60'3 6.7
2017-Sep-11 14:30N 29°49' W 092°03'3 7.0
2017-Sep-11 14:00N 29°47' W 092°07'3 6.2
2017-Sep-11 13:29N 29°47' W 092°11'3 6.0
2017-Sep-11 13:00N 29°48' W 092°14'3 6.8
2017-Sep-11 12:29N 29°49' W 092°17'39 5.8
2017-Sep-11 05:50N 29°56' W 093°01'2 6.0
2017-Sep-11 05:28N 29°56' W 093°04'3 5.9
2017-Sep-11 05:00N 29°56' W 093°07'3 5.1
2017-Sep-11 04:28N 29°57' W 093°10'2 4.2
2017-Sep-11 04:00N 29°58' W 093°12'3 5.6
2017-Sep-11 03:29N 30°00' W 093°14'2 3.0
2017-Sep-11 02:55N 30°02' W 093°15'0 0.4
2017-Sep-11 02:30N 30°02' W 093°15'1 1.1
2017-Sep-11 01:57N 30°02' W 093°16'2 4.5
2017-Sep-11 01:30N 30°04' W 093°16'2 4.5
2017-Sep-11 01:00N 30°06' W 093°18'0 0.4
2017-Sep-11 00:30N 30°06' W 093°18'  

Dump ship's entire track history